Adrian, MN (56110)

7:33 PM CST on February 09, 2016 (GMT -0600)
WolfPork | | Change Station
CLOSE
Current Station
Personal Weather Station
Location: Adrian, MN
Elevation: 1568 ft
Nearby Weather Stations

Elev 1568 ft 43.59 °N, 95.96 °W | Updated 9 minutes ago

Overcast
Overcast
17.2 °F
Feels Like 8 °F
N
6.8
Wind Variable Wind from West

Today
High -- | Low -- °F
--% Chance of Precip.
Yesterday
High -- | Low -- °F
Precip. -- in
Pressure 30.20 in
Visibility 10.0 miles
Clouds Scattered Clouds 5000 ft
Windchill 8 °F
Dew Point 15 °F
Humidity 90%
Rainfall 0.00 in
Snow Depth Not available.
7:31 AM 5:45 PM
Waxing Crescent, 3% visible
METAR KLYV 100115Z AUTO 33005KT 10SM SCT050 M06/M10 A3020 RMK AO2
Pressure 30.20 in
Visibility 10.0 miles
Clouds Scattered Clouds 5000 ft
Windchill 8 °F
Dew Point 15 °F
Humidity 90%
Rainfall 0.00 in
Snow Depth Not available.
7:31 AM 5:45 PM
Waxing Crescent, 3% visible
METAR KLYV 100115Z AUTO 33005KT 10SM SCT050 M06/M10 A3020 RMK AO2

10-Day Weather Forecast

Almanac

Astronomy

Feb. 09, 2016 Rise Set
Actual Time
Civil Twilight
Nautical Twilight
Astronomical Twilight
Moon
Length of Visible Light
Length of Day
Tomorrow will be .
, % of the Moon is Illuminated

Today's Extremes

State Highs State Lows

Community

WunderPhotos

Upload Photos

1,891,760 photos uploaded!

WunderBlog® & News

Nearby

Air Quality

  Air Quality AQ Index Pollutant
Not available.

Snow Depth

Station Depth Elevation

Earthquake Activity

City Distance Mag. Time & Date
Minimum magnitude displayed is 2.5.

Coastal Water Temperatures

Place Temperature

Stations

Nearby Weather Stations

Station Location Temp. Windchill Dew Point Humidity Wind Precip. Elev Updated Type
                   

Watches & Warnings

There are currently no watches in effect.